Terminal Aerodrome Forecast
Issued by NWS

Home | Current Version | Previous Version | Text Only | Print | Product List | Glossary On
Versions: 1 2 3 4 5 6 7 8 9 10 11 12 13 14 15 16 17 18 19 20 21 22 23 24 25 26 27 28 29 30 31
000
FTAK31 PANC 191720
TAFATK
TAF
PATK 191720Z 1918/2018 01007KT 1SM -SN BR VV015
     FM192100 01005KT 5SM -SN BR SCT015 OVC025
     FM200000 02007KT P6SM SCT045 BKN080
     FM200600 02005KT P6SM SKC
     FM201500 02012G20KT P6SM SKC=

USA.gov is the U.S. government's official web portal to all federal, state and local government web resources and services.